Hauptseite
METAR-TAF:

METAR-TAF

Flughäfen :

Flughafen Forlì

Forlì, Italien

Breite: 44-12N, Länge: 012-04E, Höhe: 27 m

Beobachtung

Neuester Wetterbericht von vor 10 Stunden und 29 Minuten, um 15:50 UTC
Wind 9 kt aus Ost
Temperatur 20°C
Luftfeuchtigkeit 88%
Luftdruck 1014 hPa
Sichtweite: 9000 m
Aufgelockert bewölkt in der Höhe von 2500 ft
Durchbrochene Bewölkung in der Höhe von 3000 ft

METAR: LIPK 221550Z 10009KT 9000 SCT025 BKN030 20/18 Q1014

Zeit: 04:19 (02:19 UTC)


TAF: fehlend

Wetterbeobachtungen und Prognosen von mehr als 4000 Flughäfen (METAR und TAF Bericht).

Die verfügbaren Stationen werden durch gelbe und rote Markierungen auf der Karte dargestellt.

Führen Sie die Maus auf sie, um den Namen der Station zu sehen.

Darauf klicken, um die Beobachtung von Wetterbeobachtungen und Prognosen zu sehen.

Um die Karte zu ändern : klicken Sie auf den grünen Tasten mit einem schwarzen Kreuz Zum Vergrößern, auf den grünen Button mit einem Gedankenstrich zu verkleinern, oder auf die grünen Pfeile für benachbarte Karten.


METAR-TAF: